YELS weather

Earlston Airport
Victoria, Australia

Public forecast

Using degrees Celsius for public forecast. Weather courtesy of forecast.io.

Closest aviation weather report (METAR) to Earlston Airport

Closest report is Wangaratta Airport, 30.2 nm (56.0 km) ENE. Retrieved 2020/02/25 21:00 UTC (35 minutes ago):

YWGT 252100Z AUTO 29010KT 9999 // NCD 19/16 Q1007

Closest aviation forecast (TAF) to Earlston Airport

Closest forecast is Wangaratta Airport, 30.2 nm (56.0 km) ENE. Retrieved 2020/02/25 19:03 UTC (3 hours ago):

TAF YWGT 251746Z 2519/2608 27010KT CAVOK BECMG 2520/2522 26015G25KT CAVOK FM260400 22014KT CAVOK